sensor_id;sensor_type;location;lat;lon;timestamp;P1;durP1;ratioP1;P2;durP2;ratioP2
15913;SDS011;8055;51.930;8.840;2023-05-02T00:00:11;8.90;;;5.88;;
15913;SDS011;8055;51.930;8.840;2023-05-02T00:02:37;6.82;;;6.10;;
15913;SDS011;8055;51.930;8.840;2023-05-02T00:05:03;6.03;;;5.40;;
15913;SDS011;8055;51.930;8.840;2023-05-02T00:07:30;7.03;;;4.93;;
15913;SDS011;8055;51.930;8.840;2023-05-02T00:09:55;6.63;;;5.22;;
15913;SDS011;8055;51.930;8.840;2023-05-02T00:12:20;6.30;;;5.35;;
15913;SDS011;8055;51.930;8.840;2023-05-02T00:14:47;6.10;;;5.50;;
15913;SDS011;8055;51.930;8.840;2023-05-02T00:17:16;6.38;;;5.72;;
15913;SDS011;8055;51.930;8.840;2023-05-02T00:19:42;5.53;;;5.03;;
15913;SDS011;8055;51.930;8.840;2023-05-02T00:22:08;6.75;;;5.90;;
15913;SDS011;8055;51.930;8.840;2023-05-02T00:24:33;5.72;;;4.90;;
15913;SDS011;8055;51.930;8.840;2023-05-02T00:26:59;6.20;;;5.32;;
15913;SDS011;8055;51.930;8.840;2023-05-02T00:29:25;6.70;;;5.55;;
15913;SDS011;8055;51.930;8.840;2023-05-02T00:31:50;7.18;;;5.68;;
15913;SDS011;8055;51.930;8.840;2023-05-02T00:34:15;6.43;;;5.55;;
15913;SDS011;8055;51.930;8.840;2023-05-02T00:36:41;5.95;;;5.35;;
15913;SDS011;8055;51.930;8.840;2023-05-02T00:39:06;7.30;;;5.82;;
15913;SDS011;8055;51.930;8.840;2023-05-02T00:41:31;6.75;;;6.15;;
15913;SDS011;8055;51.930;8.840;2023-05-02T00:43:57;6.85;;;5.57;;
15913;SDS011;8055;51.930;8.840;2023-05-02T00:46:22;6.47;;;5.82;;
15913;SDS011;8055;51.930;8.840;2023-05-02T00:48:48;6.30;;;5.60;;
15913;SDS011;8055;51.930;8.840;2023-05-02T00:51:14;8.52;;;5.70;;
15913;SDS011;8055;51.930;8.840;2023-05-02T00:53:40;9.65;;;6.15;;
15913;SDS011;8055;51.930;8.840;2023-05-02T00:56:06;6.45;;;5.85;;
15913;SDS011;8055;51.930;8.840;2023-05-02T00:58:32;6.72;;;6.03;;
15913;SDS011;8055;51.930;8.840;2023-05-02T01:01:10;7.63;;;6.45;;
15913;SDS011;8055;51.930;8.840;2023-05-02T01:03:53;8.32;;;5.97;;
15913;SDS011;8055;51.930;8.840;2023-05-02T01:12:05;9.65;;;7.28;;
15913;SDS011;8055;51.930;8.840;2023-05-02T01:14:42;7.65;;;6.85;;
15913;SDS011;8055;51.930;8.840;2023-05-02T01:17:11;10.40;;;7.95;;
15913;SDS011;8055;51.930;8.840;2023-05-02T01:19:41;11.35;;;8.55;;
15913;SDS011;8055;51.930;8.840;2023-05-02T01:22:10;8.18;;;7.38;;
15913;SDS011;8055;51.930;8.840;2023-05-02T01:30:15;10.77;;;7.65;;
15913;SDS011;8055;51.930;8.840;2023-05-02T01:32:44;9.43;;;8.27;;
15913;SDS011;8055;51.930;8.840;2023-05-02T01:35:13;9.82;;;8.63;;
15913;SDS011;8055;51.930;8.840;2023-05-02T01:37:40;11.50;;;9.23;;
15913;SDS011;8055;51.930;8.840;2023-05-02T01:40:09;9.57;;;8.68;;
15913;SDS011;8055;51.930;8.840;2023-05-02T01:42:35;12.23;;;9.60;;
15913;SDS011;8055;51.930;8.840;2023-05-02T01:45:05;10.27;;;9.23;;
15913;SDS011;8055;51.930;8.840;2023-05-02T01:47:34;10.02;;;9.02;;
15913;SDS011;8055;51.930;8.840;2023-05-02T01:50:02;10.95;;;9.85;;
15913;SDS011;8055;51.930;8.840;2023-05-02T01:52:29;14.98;;;11.77;;
15913;SDS011;8055;51.930;8.840;2023-05-02T01:54:56;12.43;;;11.15;;
15913;SDS011;8055;51.930;8.840;2023-05-02T01:57:23;11.73;;;10.52;;
15913;SDS011;8055;51.930;8.840;2023-05-02T01:59:49;12.27;;;11.07;;
15913;SDS011;8055;51.930;8.840;2023-05-02T02:02:15;11.68;;;10.55;;
15913;SDS011;8055;51.930;8.840;2023-05-02T02:04:41;12.32;;;11.02;;
15913;SDS011;8055;51.930;8.840;2023-05-02T02:07:10;14.65;;;11.57;;
15913;SDS011;8055;51.930;8.840;2023-05-02T02:09:38;14.48;;;12.98;;
15913;SDS011;8055;51.930;8.840;2023-05-02T02:12:11;14.88;;;13.35;;
15913;SDS011;8055;51.930;8.840;2023-05-02T02:14:55;12.48;;;11.18;;
15913;SDS011;8055;51.930;8.840;2023-05-02T02:19:56;14.80;;;13.13;;
15913;SDS011;8055;51.930;8.840;2023-05-02T02:22:26;16.73;;;13.43;;
15913;SDS011;8055;51.930;8.840;2023-05-02T02:24:54;15.70;;;12.70;;
15913;SDS011;8055;51.930;8.840;2023-05-02T02:27:21;16.45;;;14.52;;
15913;SDS011;8055;51.930;8.840;2023-05-02T02:29:46;18.52;;;15.07;;
15913;SDS011;8055;51.930;8.840;2023-05-02T02:32:12;17.90;;;15.02;;
15913;SDS011;8055;51.930;8.840;2023-05-02T02:34:37;16.98;;;14.50;;
15913;SDS011;8055;51.930;8.840;2023-05-02T02:37:49;17.25;;;14.98;;
15913;SDS011;8055;51.930;8.840;2023-05-02T02:48:10;18.70;;;16.52;;
15913;SDS011;8055;51.930;8.840;2023-05-02T02:56:40;21.77;;;17.50;;
15913;SDS011;8055;51.930;8.840;2023-05-02T03:01:41;21.95;;;17.40;;
15913;SDS011;8055;51.930;8.840;2023-05-02T03:04:10;20.98;;;18.27;;
15913;SDS011;8055;51.930;8.840;2023-05-02T03:06:37;22.38;;;18.23;;
15913;SDS011;8055;51.930;8.840;2023-05-02T03:09:03;21.33;;;17.58;;
15913;SDS011;8055;51.930;8.840;2023-05-02T03:11:28;24.02;;;19.80;;
15913;SDS011;8055;51.930;8.840;2023-05-02T03:13:54;27.75;;;20.58;;
15913;SDS011;8055;51.930;8.840;2023-05-02T03:18:58;25.80;;;19.40;;
15913;SDS011;8055;51.930;8.840;2023-05-02T03:21:24;25.67;;;20.48;;
15913;SDS011;8055;51.930;8.840;2023-05-02T03:23:49;26.15;;;19.88;;
15913;SDS011;8055;51.930;8.840;2023-05-02T03:26:15;29.73;;;22.67;;
15913;SDS011;8055;51.930;8.840;2023-05-02T03:28:41;33.88;;;24.27;;
15913;SDS011;8055;51.930;8.840;2023-05-02T03:31:10;29.42;;;21.75;;
15913;SDS011;8055;51.930;8.840;2023-05-02T03:33:36;30.90;;;21.30;;
15913;SDS011;8055;51.930;8.840;2023-05-02T03:36:01;33.33;;;23.60;;
15913;SDS011;8055;51.930;8.840;2023-05-02T03:38:28;29.45;;;22.27;;
15913;SDS011;8055;51.930;8.840;2023-05-02T03:40:55;31.65;;;22.73;;
15913;SDS011;8055;51.930;8.840;2023-05-02T03:43:21;34.85;;;23.67;;
15913;SDS011;8055;51.930;8.840;2023-05-02T03:45:46;29.65;;;22.27;;
15913;SDS011;8055;51.930;8.840;2023-05-02T03:48:12;33.47;;;23.48;;
15913;SDS011;8055;51.930;8.840;2023-05-02T03:50:37;32.13;;;23.63;;
15913;SDS011;8055;51.930;8.840;2023-05-02T03:53:02;33.10;;;22.77;;
15913;SDS011;8055;51.930;8.840;2023-05-02T03:55:28;32.20;;;23.58;;
15913;SDS011;8055;51.930;8.840;2023-05-02T03:57:53;38.08;;;26.85;;
15913;SDS011;8055;51.930;8.840;2023-05-02T04:00:18;37.25;;;26.77;;
15913;SDS011;8055;51.930;8.840;2023-05-02T04:02:44;46.55;;;32.35;;
15913;SDS011;8055;51.930;8.840;2023-05-02T04:05:09;54.70;;;33.90;;
15913;SDS011;8055;51.930;8.840;2023-05-02T04:07:35;49.30;;;33.13;;
15913;SDS011;8055;51.930;8.840;2023-05-02T04:10:00;57.63;;;37.65;;
15913;SDS011;8055;51.930;8.840;2023-05-02T04:12:25;51.85;;;34.63;;
15913;SDS011;8055;51.930;8.840;2023-05-02T04:14:51;53.67;;;34.65;;
15913;SDS011;8055;51.930;8.840;2023-05-02T04:17:16;50.33;;;32.60;;
15913;SDS011;8055;51.930;8.840;2023-05-02T04:19:42;56.10;;;35.53;;
15913;SDS011;8055;51.930;8.840;2023-05-02T04:22:07;46.30;;;31.67;;
15913;SDS011;8055;51.930;8.840;2023-05-02T04:24:32;49.53;;;31.65;;
15913;SDS011;8055;51.930;8.840;2023-05-02T04:26:58;45.85;;;31.60;;
15913;SDS011;8055;51.930;8.840;2023-05-02T04:29:23;48.72;;;29.58;;
15913;SDS011;8055;51.930;8.840;2023-05-02T04:31:49;46.05;;;29.42;;
15913;SDS011;8055;51.930;8.840;2023-05-02T04:34:15;45.42;;;27.23;;
15913;SDS011;8055;51.930;8.840;2023-05-02T04:36:40;41.05;;;27.67;;
15913;SDS011;8055;51.930;8.840;2023-05-02T04:39:06;41.78;;;27.58;;
15913;SDS011;8055;51.930;8.840;2023-05-02T04:41:32;40.40;;;24.92;;
15913;SDS011;8055;51.930;8.840;2023-05-02T04:43:58;42.70;;;26.73;;
15913;SDS011;8055;51.930;8.840;2023-05-02T04:46:23;46.35;;;28.17;;
15913;SDS011;8055;51.930;8.840;2023-05-02T04:48:48;45.75;;;27.10;;
15913;SDS011;8055;51.930;8.840;2023-05-02T04:51:14;43.17;;;26.95;;
15913;SDS011;8055;51.930;8.840;2023-05-02T04:53:39;43.70;;;26.35;;
15913;SDS011;8055;51.930;8.840;2023-05-02T04:56:05;39.33;;;23.38;;
15913;SDS011;8055;51.930;8.840;2023-05-02T04:58:31;41.72;;;23.90;;
15913;SDS011;8055;51.930;8.840;2023-05-02T05:00:59;37.78;;;22.55;;
15913;SDS011;8055;51.930;8.840;2023-05-02T05:03:24;37.13;;;24.02;;
15913;SDS011;8055;51.930;8.840;2023-05-02T05:05:49;38.10;;;22.77;;
15913;SDS011;8055;51.930;8.840;2023-05-02T05:08:15;39.65;;;23.98;;
15913;SDS011;8055;51.930;8.840;2023-05-02T05:10:41;40.72;;;25.40;;
15913;SDS011;8055;51.930;8.840;2023-05-02T05:13:07;38.20;;;23.77;;
15913;SDS011;8055;51.930;8.840;2023-05-02T05:15:32;42.20;;;23.67;;
15913;SDS011;8055;51.930;8.840;2023-05-02T05:17:57;33.35;;;21.02;;
15913;SDS011;8055;51.930;8.840;2023-05-02T05:20:23;34.03;;;20.67;;
15913;SDS011;8055;51.930;8.840;2023-05-02T05:22:48;34.97;;;22.05;;
15913;SDS011;8055;51.930;8.840;2023-05-02T05:25:14;33.50;;;22.70;;
15913;SDS011;8055;51.930;8.840;2023-05-02T05:27:40;38.78;;;23.73;;
15913;SDS011;8055;51.930;8.840;2023-05-02T05:30:05;38.67;;;23.80;;
15913;SDS011;8055;51.930;8.840;2023-05-02T05:32:32;40.85;;;23.45;;
15913;SDS011;8055;51.930;8.840;2023-05-02T05:34:58;36.22;;;22.35;;
15913;SDS011;8055;51.930;8.840;2023-05-02T05:37:24;37.08;;;22.77;;
15913;SDS011;8055;51.930;8.840;2023-05-02T05:39:49;36.58;;;22.58;;
15913;SDS011;8055;51.930;8.840;2023-05-02T05:42:15;35.92;;;22.40;;
15913;SDS011;8055;51.930;8.840;2023-05-02T05:44:40;36.28;;;22.83;;
15913;SDS011;8055;51.930;8.840;2023-05-02T05:47:06;30.05;;;19.80;;
15913;SDS011;8055;51.930;8.840;2023-05-02T05:49:31;30.08;;;18.77;;
15913;SDS011;8055;51.930;8.840;2023-05-02T05:51:57;36.45;;;21.73;;
15913;SDS011;8055;51.930;8.840;2023-05-02T05:54:22;32.53;;;21.15;;
15913;SDS011;8055;51.930;8.840;2023-05-02T05:56:48;33.17;;;20.63;;
15913;SDS011;8055;51.930;8.840;2023-05-02T05:59:13;28.35;;;18.35;;
15913;SDS011;8055;51.930;8.840;2023-05-02T06:01:39;25.27;;;16.48;;
15913;SDS011;8055;51.930;8.840;2023-05-02T06:04:05;22.00;;;13.88;;
15913;SDS011;8055;51.930;8.840;2023-05-02T06:06:31;21.10;;;11.85;;
15913;SDS011;8055;51.930;8.840;2023-05-02T06:08:57;18.73;;;12.10;;
15913;SDS011;8055;51.930;8.840;2023-05-02T06:11:22;18.67;;;12.00;;
15913;SDS011;8055;51.930;8.840;2023-05-02T06:13:51;19.40;;;11.65;;
15913;SDS011;8055;51.930;8.840;2023-05-02T06:16:17;17.02;;;10.75;;
15913;SDS011;8055;51.930;8.840;2023-05-02T06:18:43;10.18;;;6.45;;
15913;SDS011;8055;51.930;8.840;2023-05-02T06:21:09;5.38;;;4.00;;
15913;SDS011;8055;51.930;8.840;2023-05-02T06:23:34;6.35;;;4.45;;
15913;SDS011;8055;51.930;8.840;2023-05-02T06:26:00;5.90;;;3.78;;
15913;SDS011;8055;51.930;8.840;2023-05-02T06:28:27;5.85;;;3.53;;
15913;SDS011;8055;51.930;8.840;2023-05-02T06:31:00;7.45;;;4.53;;
15913;SDS011;8055;51.930;8.840;2023-05-02T06:33:30;8.60;;;4.03;;
15913;SDS011;8055;51.930;8.840;2023-05-02T06:35:57;7.30;;;4.47;;
15913;SDS011;8055;51.930;8.840;2023-05-02T06:38:22;9.57;;;4.95;;
15913;SDS011;8055;51.930;8.840;2023-05-02T06:40:48;7.00;;;4.93;;
15913;SDS011;8055;51.930;8.840;2023-05-02T06:43:14;8.50;;;5.00;;
15913;SDS011;8055;51.930;8.840;2023-05-02T06:45:40;7.63;;;5.15;;
15913;SDS011;8055;51.930;8.840;2023-05-02T06:48:06;7.43;;;4.97;;
15913;SDS011;8055;51.930;8.840;2023-05-02T06:50:32;8.82;;;5.45;;
15913;SDS011;8055;51.930;8.840;2023-05-02T06:52:58;10.02;;;6.32;;
15913;SDS011;8055;51.930;8.840;2023-05-02T06:55:24;13.50;;;6.20;;
15913;SDS011;8055;51.930;8.840;2023-05-02T06:57:50;20.98;;;6.80;;
15913;SDS011;8055;51.930;8.840;2023-05-02T07:00:16;13.20;;;6.32;;
15913;SDS011;8055;51.930;8.840;2023-05-02T07:02:44;17.83;;;6.55;;
15913;SDS011;8055;51.930;8.840;2023-05-02T07:05:11;11.85;;;5.80;;
15913;SDS011;8055;51.930;8.840;2023-05-02T07:07:36;11.38;;;5.93;;
15913;SDS011;8055;51.930;8.840;2023-05-02T07:10:02;14.02;;;6.00;;
15913;SDS011;8055;51.930;8.840;2023-05-02T07:12:28;13.60;;;5.20;;
15913;SDS011;8055;51.930;8.840;2023-05-02T07:14:53;13.88;;;5.38;;
15913;SDS011;8055;51.930;8.840;2023-05-02T07:17:19;13.90;;;5.28;;
15913;SDS011;8055;51.930;8.840;2023-05-02T07:19:44;10.40;;;5.65;;
15913;SDS011;8055;51.930;8.840;2023-05-02T07:22:10;9.52;;;5.22;;
15913;SDS011;8055;51.930;8.840;2023-05-02T07:24:38;11.65;;;5.55;;
15913;SDS011;8055;51.930;8.840;2023-05-02T07:27:05;12.30;;;5.55;;
15913;SDS011;8055;51.930;8.840;2023-05-02T07:29:30;13.57;;;6.07;;
15913;SDS011;8055;51.930;8.840;2023-05-02T07:31:55;11.27;;;5.57;;
15913;SDS011;8055;51.930;8.840;2023-05-02T07:34:21;14.52;;;5.55;;
15913;SDS011;8055;51.930;8.840;2023-05-02T07:36:46;12.48;;;5.25;;
15913;SDS011;8055;51.930;8.840;2023-05-02T07:39:11;13.52;;;6.03;;
15913;SDS011;8055;51.930;8.840;2023-05-02T07:41:37;13.20;;;5.80;;
15913;SDS011;8055;51.930;8.840;2023-05-02T07:44:02;11.68;;;5.03;;
15913;SDS011;8055;51.930;8.840;2023-05-02T07:46:27;13.23;;;5.88;;
15913;SDS011;8055;51.930;8.840;2023-05-02T07:48:53;11.80;;;5.53;;
15913;SDS011;8055;51.930;8.840;2023-05-02T07:51:19;14.00;;;5.03;;
15913;SDS011;8055;51.930;8.840;2023-05-02T07:53:45;11.70;;;4.68;;
15913;SDS011;8055;51.930;8.840;2023-05-02T07:56:14;12.57;;;5.28;;
15913;SDS011;8055;51.930;8.840;2023-05-02T07:58:39;12.23;;;5.35;;
15913;SDS011;8055;51.930;8.840;2023-05-02T08:01:05;14.45;;;5.60;;
15913;SDS011;8055;51.930;8.840;2023-05-02T08:03:30;15.93;;;5.80;;
15913;SDS011;8055;51.930;8.840;2023-05-02T08:05:55;17.05;;;6.10;;
15913;SDS011;8055;51.930;8.840;2023-05-02T08:08:21;13.57;;;6.20;;
15913;SDS011;8055;51.930;8.840;2023-05-02T08:10:47;20.98;;;6.60;;
15913;SDS011;8055;51.930;8.840;2023-05-02T08:13:16;17.48;;;5.75;;
15913;SDS011;8055;51.930;8.840;2023-05-02T08:15:41;14.10;;;5.90;;
15913;SDS011;8055;51.930;8.840;2023-05-02T08:18:07;19.42;;;7.18;;
15913;SDS011;8055;51.930;8.840;2023-05-02T08:20:32;17.05;;;6.60;;
15913;SDS011;8055;51.930;8.840;2023-05-02T08:22:57;24.85;;;7.50;;
15913;SDS011;8055;51.930;8.840;2023-05-02T08:25:23;13.15;;;5.70;;
15913;SDS011;8055;51.930;8.840;2023-05-02T08:27:48;14.32;;;6.00;;
15913;SDS011;8055;51.930;8.840;2023-05-02T08:30:13;24.95;;;6.60;;
15913;SDS011;8055;51.930;8.840;2023-05-02T08:32:39;19.25;;;6.47;;
15913;SDS011;8055;51.930;8.840;2023-05-02T08:35:04;20.27;;;5.40;;
15913;SDS011;8055;51.930;8.840;2023-05-02T08:37:30;21.25;;;5.70;;
15913;SDS011;8055;51.930;8.840;2023-05-02T08:39:56;17.10;;;6.13;;
15913;SDS011;8055;51.930;8.840;2023-05-02T08:42:22;15.55;;;5.95;;
15913;SDS011;8055;51.930;8.840;2023-05-02T08:44:48;18.02;;;6.25;;
15913;SDS011;8055;51.930;8.840;2023-05-02T08:47:13;19.52;;;6.38;;
15913;SDS011;8055;51.930;8.840;2023-05-02T08:49:40;25.60;;;7.03;;
15913;SDS011;8055;51.930;8.840;2023-05-02T08:52:07;17.90;;;6.32;;
15913;SDS011;8055;51.930;8.840;2023-05-02T08:54:33;22.85;;;6.82;;
15913;SDS011;8055;51.930;8.840;2023-05-02T08:57:02;17.30;;;5.85;;
15913;SDS011;8055;51.930;8.840;2023-05-02T08:59:28;17.02;;;5.85;;
15913;SDS011;8055;51.930;8.840;2023-05-02T09:01:54;18.65;;;6.65;;
15913;SDS011;8055;51.930;8.840;2023-05-02T09:04:29;21.10;;;6.22;;
15913;SDS011;8055;51.930;8.840;2023-05-02T09:06:58;16.55;;;6.18;;
15913;SDS011;8055;51.930;8.840;2023-05-02T09:09:24;13.77;;;5.55;;
15913;SDS011;8055;51.930;8.840;2023-05-02T09:11:51;19.40;;;8.20;;
15913;SDS011;8055;51.930;8.840;2023-05-02T09:14:16;16.60;;;6.28;;
15913;SDS011;8055;51.930;8.840;2023-05-02T09:16:42;15.55;;;7.70;;
15913;SDS011;8055;51.930;8.840;2023-05-02T09:19:08;22.52;;;8.35;;
15913;SDS011;8055;51.930;8.840;2023-05-02T09:21:37;25.60;;;9.20;;
15913;SDS011;8055;51.930;8.840;2023-05-02T09:24:15;19.52;;;7.97;;
15913;SDS011;8055;51.930;8.840;2023-05-02T09:27:03;25.80;;;8.18;;
15913;SDS011;8055;51.930;8.840;2023-05-02T09:29:30;17.83;;;7.40;;
15913;SDS011;8055;51.930;8.840;2023-05-02T09:32:03;20.65;;;8.05;;
15913;SDS011;8055;51.930;8.840;2023-05-02T09:34:29;25.52;;;8.38;;
15913;SDS011;8055;51.930;8.840;2023-05-02T09:36:55;17.02;;;7.47;;
15913;SDS011;8055;51.930;8.840;2023-05-02T09:39:26;22.70;;;7.97;;
15913;SDS011;8055;51.930;8.840;2023-05-02T09:41:56;17.30;;;8.20;;
15913;SDS011;8055;51.930;8.840;2023-05-02T09:44:25;18.90;;;7.95;;
15913;SDS011;8055;51.930;8.840;2023-05-02T09:47:00;18.38;;;8.63;;
15913;SDS011;8055;51.930;8.840;2023-05-02T09:49:59;20.67;;;7.15;;
15913;SDS011;8055;51.930;8.840;2023-05-02T09:52:18;17.37;;;7.43;;
15913;SDS011;8055;51.930;8.840;2023-05-02T09:54:47;18.98;;;6.78;;
15913;SDS011;8055;51.930;8.840;2023-05-02T09:57:16;19.85;;;7.07;;
15913;SDS011;8055;51.930;8.840;2023-05-02T09:59:52;20.50;;;7.65;;
15913;SDS011;8055;51.930;8.840;2023-05-02T10:02:19;17.73;;;7.20;;
15913;SDS011;8055;51.930;8.840;2023-05-02T10:04:45;20.25;;;6.93;;
15913;SDS011;8055;51.930;8.840;2023-05-02T10:07:12;17.25;;;6.45;;
15913;SDS011;8055;51.930;8.840;2023-05-02T10:09:42;15.98;;;6.47;;
15913;SDS011;8055;51.930;8.840;2023-05-02T10:12:09;15.40;;;5.95;;
15913;SDS011;8055;51.930;8.840;2023-05-02T10:14:39;13.65;;;6.18;;
15913;SDS011;8055;51.930;8.840;2023-05-02T10:17:19;17.02;;;6.30;;
15913;SDS011;8055;51.930;8.840;2023-05-02T10:22:21;11.43;;;6.00;;
15913;SDS011;8055;51.930;8.840;2023-05-02T10:24:50;21.20;;;6.10;;
15913;SDS011;8055;51.930;8.840;2023-05-02T10:27:17;10.57;;;5.18;;
15913;SDS011;8055;51.930;8.840;2023-05-02T10:29:43;16.33;;;6.15;;
15913;SDS011;8055;51.930;8.840;2023-05-02T10:32:09;16.08;;;5.60;;
15913;SDS011;8055;51.930;8.840;2023-05-02T10:34:35;21.73;;;6.22;;
15913;SDS011;8055;51.930;8.840;2023-05-02T10:37:02;14.82;;;5.70;;
15913;SDS011;8055;51.930;8.840;2023-05-02T10:39:27;12.07;;;5.30;;
15913;SDS011;8055;51.930;8.840;2023-05-02T10:41:54;11.60;;;4.45;;
15913;SDS011;8055;51.930;8.840;2023-05-02T10:44:31;10.73;;;4.90;;
15913;SDS011;8055;51.930;8.840;2023-05-02T10:46:58;15.68;;;4.65;;
15913;SDS011;8055;51.930;8.840;2023-05-02T10:49:24;11.88;;;4.15;;
15913;SDS011;8055;51.930;8.840;2023-05-02T10:51:51;13.02;;;4.05;;
15913;SDS011;8055;51.930;8.840;2023-05-02T10:54:23;12.95;;;4.45;;
15913;SDS011;8055;51.930;8.840;2023-05-02T10:59:42;12.70;;;4.95;;
15913;SDS011;8055;51.930;8.840;2023-05-02T11:05:21;11.20;;;4.10;;
15913;SDS011;8055;51.930;8.840;2023-05-02T11:07:38;18.77;;;4.38;;
15913;SDS011;8055;51.930;8.840;2023-05-02T11:12:42;15.15;;;5.15;;
15913;SDS011;8055;51.930;8.840;2023-05-02T11:15:52;17.38;;;4.95;;
15913;SDS011;8055;51.930;8.840;2023-05-02T11:18:06;11.90;;;4.70;;
15913;SDS011;8055;51.930;8.840;2023-05-02T11:20:37;14.27;;;4.90;;
15913;SDS011;8055;51.930;8.840;2023-05-02T11:25:48;14.90;;;5.25;;
15913;SDS011;8055;51.930;8.840;2023-05-02T11:31:03;16.40;;;4.63;;
15913;SDS011;8055;51.930;8.840;2023-05-02T11:33:30;17.30;;;5.55;;
15913;SDS011;8055;51.930;8.840;2023-05-02T11:35:55;10.70;;;4.35;;
15913;SDS011;8055;51.930;8.840;2023-05-02T11:38:22;12.60;;;4.60;;
15913;SDS011;8055;51.930;8.840;2023-05-02T11:40:48;15.48;;;4.20;;
15913;SDS011;8055;51.930;8.840;2023-05-02T11:43:16;11.82;;;4.40;;
15913;SDS011;8055;51.930;8.840;2023-05-02T11:45:43;17.58;;;6.70;;
15913;SDS011;8055;51.930;8.840;2023-05-02T11:48:11;18.35;;;5.95;;
15913;SDS011;8055;51.930;8.840;2023-05-02T11:50:56;13.52;;;5.13;;
15913;SDS011;8055;51.930;8.840;2023-05-02T11:53:26;18.95;;;5.47;;
15913;SDS011;8055;51.930;8.840;2023-05-02T11:56:00;13.88;;;4.82;;
15913;SDS011;8055;51.930;8.840;2023-05-02T11:58:27;14.85;;;5.50;;
15913;SDS011;8055;51.930;8.840;2023-05-02T12:00:57;13.68;;;4.82;;
15913;SDS011;8055;51.930;8.840;2023-05-02T12:03:28;16.35;;;5.13;;
15913;SDS011;8055;51.930;8.840;2023-05-02T12:05:55;19.38;;;5.35;;
15913;SDS011;8055;51.930;8.840;2023-05-02T12:08:22;14.48;;;5.55;;
15913;SDS011;8055;51.930;8.840;2023-05-02T12:10:49;16.23;;;5.22;;
15913;SDS011;8055;51.930;8.840;2023-05-02T12:13:19;14.68;;;5.60;;
15913;SDS011;8055;51.930;8.840;2023-05-02T12:15:46;12.52;;;4.75;;
15913;SDS011;8055;51.930;8.840;2023-05-02T12:18:13;12.77;;;5.32;;
15913;SDS011;8055;51.930;8.840;2023-05-02T12:20:39;17.70;;;6.10;;
15913;SDS011;8055;51.930;8.840;2023-05-02T12:23:04;10.00;;;5.15;;
15913;SDS011;8055;51.930;8.840;2023-05-02T12:25:31;20.00;;;5.43;;
15913;SDS011;8055;51.930;8.840;2023-05-02T12:28:01;14.10;;;4.82;;
15913;SDS011;8055;51.930;8.840;2023-05-02T12:30:27;15.98;;;5.60;;
15913;SDS011;8055;51.930;8.840;2023-05-02T12:32:57;15.93;;;5.20;;
15913;SDS011;8055;51.930;8.840;2023-05-02T12:35:25;10.95;;;5.25;;
15913;SDS011;8055;51.930;8.840;2023-05-02T12:37:52;8.60;;;4.85;;
15913;SDS011;8055;51.930;8.840;2023-05-02T12:40:18;10.68;;;5.07;;
15913;SDS011;8055;51.930;8.840;2023-05-02T12:43:05;16.02;;;7.68;;
15913;SDS011;8055;51.930;8.840;2023-05-02T12:45:32;11.93;;;5.03;;
15913;SDS011;8055;51.930;8.840;2023-05-02T12:48:02;11.52;;;4.25;;
15913;SDS011;8055;51.930;8.840;2023-05-02T12:50:42;8.63;;;4.15;;
15913;SDS011;8055;51.930;8.840;2023-05-02T12:53:08;13.40;;;4.32;;
15913;SDS011;8055;51.930;8.840;2023-05-02T12:55:33;15.55;;;4.60;;
15913;SDS011;8055;51.930;8.840;2023-05-02T12:58:02;8.02;;;4.13;;
15913;SDS011;8055;51.930;8.840;2023-05-02T13:00:29;14.93;;;4.43;;
15913;SDS011;8055;51.930;8.840;2023-05-02T13:02:56;12.38;;;4.15;;
15913;SDS011;8055;51.930;8.840;2023-05-02T13:05:21;13.48;;;4.57;;
15913;SDS011;8055;51.930;8.840;2023-05-02T13:07:47;10.95;;;4.07;;
15913;SDS011;8055;51.930;8.840;2023-05-02T13:10:12;11.93;;;4.50;;
15913;SDS011;8055;51.930;8.840;2023-05-02T13:12:38;9.80;;;4.07;;
15913;SDS011;8055;51.930;8.840;2023-05-02T13:15:04;12.80;;;4.70;;
15913;SDS011;8055;51.930;8.840;2023-05-02T13:17:31;9.88;;;4.30;;
15913;SDS011;8055;51.930;8.840;2023-05-02T13:19:56;12.32;;;3.72;;
15913;SDS011;8055;51.930;8.840;2023-05-02T13:22:22;9.70;;;4.00;;
15913;SDS011;8055;51.930;8.840;2023-05-02T13:24:48;11.10;;;4.20;;
15913;SDS011;8055;51.930;8.840;2023-05-02T13:27:13;11.65;;;4.32;;
15913;SDS011;8055;51.930;8.840;2023-05-02T13:29:39;11.63;;;4.65;;
15913;SDS011;8055;51.930;8.840;2023-05-02T13:32:04;11.23;;;4.60;;
15913;SDS011;8055;51.930;8.840;2023-05-02T13:34:30;12.20;;;4.28;;
15913;SDS011;8055;51.930;8.840;2023-05-02T13:36:55;11.27;;;4.13;;
15913;SDS011;8055;51.930;8.840;2023-05-02T13:39:21;14.38;;;5.53;;
15913;SDS011;8055;51.930;8.840;2023-05-02T13:41:46;10.50;;;3.90;;
15913;SDS011;8055;51.930;8.840;2023-05-02T13:44:12;12.40;;;4.07;;
15913;SDS011;8055;51.930;8.840;2023-05-02T13:46:37;14.55;;;4.60;;
15913;SDS011;8055;51.930;8.840;2023-05-02T13:49:03;10.18;;;4.00;;
15913;SDS011;8055;51.930;8.840;2023-05-02T13:51:29;11.32;;;3.95;;
15913;SDS011;8055;51.930;8.840;2023-05-02T13:53:58;9.90;;;3.60;;
15913;SDS011;8055;51.930;8.840;2023-05-02T13:56:24;9.82;;;4.05;;
15913;SDS011;8055;51.930;8.840;2023-05-02T13:58:49;16.80;;;4.82;;
15913;SDS011;8055;51.930;8.840;2023-05-02T14:01:15;12.63;;;4.50;;
15913;SDS011;8055;51.930;8.840;2023-05-02T14:03:40;11.07;;;4.80;;
15913;SDS011;8055;51.930;8.840;2023-05-02T14:06:06;9.48;;;4.00;;
15913;SDS011;8055;51.930;8.840;2023-05-02T14:08:31;12.25;;;5.32;;
15913;SDS011;8055;51.930;8.840;2023-05-02T14:10:57;10.32;;;4.25;;
15913;SDS011;8055;51.930;8.840;2023-05-02T14:13:22;10.82;;;3.70;;
15913;SDS011;8055;51.930;8.840;2023-05-02T14:15:48;12.80;;;4.10;;
15913;SDS011;8055;51.930;8.840;2023-05-02T14:18:14;8.35;;;4.22;;
15913;SDS011;8055;51.930;8.840;2023-05-02T14:20:40;13.15;;;3.92;;
15913;SDS011;8055;51.930;8.840;2023-05-02T14:23:06;11.82;;;4.60;;
15913;SDS011;8055;51.930;8.840;2023-05-02T14:25:32;12.23;;;4.20;;
15913;SDS011;8055;51.930;8.840;2023-05-02T14:27:57;8.13;;;3.92;;
15913;SDS011;8055;51.930;8.840;2023-05-02T14:30:23;11.18;;;4.60;;
15913;SDS011;8055;51.930;8.840;2023-05-02T14:32:48;26.77;;;4.55;;
15913;SDS011;8055;51.930;8.840;2023-05-02T14:35:14;13.02;;;5.10;;
15913;SDS011;8055;51.930;8.840;2023-05-02T14:37:39;12.85;;;4.57;;
15913;SDS011;8055;51.930;8.840;2023-05-02T14:40:05;12.55;;;5.20;;
15913;SDS011;8055;51.930;8.840;2023-05-02T14:42:30;15.52;;;4.47;;
15913;SDS011;8055;51.930;8.840;2023-05-02T14:44:56;14.73;;;4.72;;
15913;SDS011;8055;51.930;8.840;2023-05-02T14:47:21;12.45;;;4.57;;
15913;SDS011;8055;51.930;8.840;2023-05-02T14:49:48;9.35;;;4.70;;
15913;SDS011;8055;51.930;8.840;2023-05-02T14:52:13;11.73;;;4.63;;
15913;SDS011;8055;51.930;8.840;2023-05-02T14:54:38;14.38;;;5.20;;
15913;SDS011;8055;51.930;8.840;2023-05-02T14:57:04;11.55;;;5.00;;
15913;SDS011;8055;51.930;8.840;2023-05-02T14:59:30;14.15;;;5.30;;
15913;SDS011;8055;51.930;8.840;2023-05-02T15:01:56;15.40;;;5.57;;
15913;SDS011;8055;51.930;8.840;2023-05-02T15:04:21;13.02;;;4.93;;
15913;SDS011;8055;51.930;8.840;2023-05-02T15:06:48;14.68;;;5.18;;
15913;SDS011;8055;51.930;8.840;2023-05-02T15:09:13;12.80;;;4.68;;
15913;SDS011;8055;51.930;8.840;2023-05-02T15:11:40;10.30;;;4.78;;
15913;SDS011;8055;51.930;8.840;2023-05-02T15:14:05;11.60;;;5.00;;
15913;SDS011;8055;51.930;8.840;2023-05-02T15:16:31;11.52;;;5.43;;
15913;SDS011;8055;51.930;8.840;2023-05-02T15:18:56;12.18;;;4.60;;
15913;SDS011;8055;51.930;8.840;2023-05-02T15:21:21;12.90;;;4.85;;
15913;SDS011;8055;51.930;8.840;2023-05-02T15:23:47;14.57;;;5.28;;
15913;SDS011;8055;51.930;8.840;2023-05-02T15:26:12;9.85;;;4.80;;
15913;SDS011;8055;51.930;8.840;2023-05-02T15:28:38;13.10;;;4.93;;
15913;SDS011;8055;51.930;8.840;2023-05-02T15:31:03;13.10;;;4.80;;
15913;SDS011;8055;51.930;8.840;2023-05-02T15:33:29;13.43;;;4.30;;